createdAt,value
2023-03-16T00:01:24.018Z,68.25
2023-03-16T00:03:55.089Z,68.14
2023-03-16T00:06:25.718Z,68.23
2023-03-16T00:08:58.508Z,68.11
2023-03-16T00:11:27.087Z,68.21
2023-03-16T00:13:55.676Z,68.15
2023-03-16T00:16:24.564Z,67.89
2023-03-16T00:18:53.509Z,68.02
2023-03-16T00:21:22.257Z,68.11
2023-03-16T00:23:52.992Z,68.12
2023-03-16T00:26:22.342Z,68.19
2023-03-16T00:28:53.772Z,68.32
2023-03-16T00:31:24.557Z,68.43
2023-03-16T00:33:56.617Z,68.41
2023-03-16T00:36:28.516Z,68.04
2023-03-16T00:38:59.580Z,68.12
2023-03-16T00:41:28.273Z,68.18
2023-03-16T00:43:59.106Z,68.03
2023-03-16T00:46:27.730Z,68.30
2023-03-16T00:48:57.647Z,68.64
2023-03-16T00:51:26.336Z,68.49
2023-03-16T00:53:58.383Z,68.53
2023-03-16T00:56:27.097Z,68.38
2023-03-16T00:58:57.187Z,68.27
2023-03-16T01:01:26.947Z,68.31
2023-03-16T01:03:57.152Z,68.26
2023-03-16T01:06:27.248Z,68.28
2023-03-16T01:08:56.158Z,68.38
2023-03-16T01:11:28.763Z,68.12
2023-03-16T01:13:57.455Z,68.33
2023-03-16T01:16:28.944Z,68.52
2023-03-16T01:18:57.574Z,68.75
2023-03-16T01:21:26.760Z,68.63
2023-03-16T01:23:58.310Z,68.53
2023-03-16T01:26:29.550Z,68.53
2023-03-16T01:28:58.503Z,68.60
2023-03-16T01:31:31.327Z,68.56
2023-03-16T01:34:03.553Z,68.43
2023-03-16T01:36:35.157Z,68.25
2023-03-16T01:39:08.440Z,68.17
2023-03-16T01:41:42.945Z,68.32
2023-03-16T01:44:16.734Z,68.41
2023-03-16T01:46:45.948Z,68.42
2023-03-16T01:49:24.554Z,68.67
2023-03-16T01:52:00.349Z,68.72
2023-03-16T01:54:35.779Z,68.74
2023-03-16T01:57:08.467Z,68.80
2023-03-16T01:59:42.890Z,68.56
2023-03-16T02:02:13.441Z,68.67
2023-03-16T02:04:50.755Z,68.85
2023-03-16T02:07:24.307Z,68.55
2023-03-16T02:09:57.548Z,68.64
2023-03-16T02:12:27.383Z,68.96
2023-03-16T02:14:57.135Z,69.19
2023-03-16T02:17:29.166Z,68.90
2023-03-16T02:20:15.188Z,68.84
2023-03-16T02:22:47.469Z,68.75
2023-03-16T02:25:18.638Z,68.69
2023-03-16T02:27:55.926Z,68.84
2023-03-16T02:30:26.461Z,68.97
2023-03-16T02:33:06.071Z,68.84
2023-03-16T02:35:35.938Z,68.68
2023-03-16T02:38:08.439Z,68.51
2023-03-16T02:40:43.445Z,68.79
2023-03-16T02:43:15.790Z,68.95
2023-03-16T02:45:54.213Z,69.01
2023-03-16T02:48:29.719Z,69.10
2023-03-16T02:50:59.344Z,68.93
2023-03-16T02:53:29.275Z,68.85
2023-03-16T02:56:04.048Z,68.94
2023-03-16T02:58:37.153Z,69.11
2023-03-16T03:01:14.087Z,69.10
2023-03-16T03:03:45.496Z,68.79
2023-03-16T03:06:21.899Z,68.49
2023-03-16T03:08:52.079Z,68.57
2023-03-16T03:11:21.380Z,68.40
2023-03-16T03:13:50.923Z,68.51
2023-03-16T03:16:23.788Z,68.75
2023-03-16T03:18:54.214Z,68.58
2023-03-16T03:21:24.127Z,68.55
2023-03-16T03:23:54.353Z,68.63
2023-03-16T03:26:24.244Z,68.49
2023-03-16T03:28:53.763Z,68.54
2023-03-16T03:31:28.934Z,68.96
2023-03-16T03:34:06.020Z,68.79
2023-03-16T03:36:36.525Z,68.70
2023-03-16T03:39:07.077Z,68.85
2023-03-16T03:41:36.330Z,69.20
2023-03-16T03:44:10.569Z,69.10
2023-03-16T03:46:40.611Z,68.96
2023-03-16T03:49:11.396Z,69.07
2023-03-16T03:51:40.953Z,69.38
2023-03-16T03:54:17.420Z,69.45
2023-03-16T03:56:57.270Z,69.43
2023-03-16T03:59:27.888Z,69.41
2023-03-16T04:02:09.389Z,69.33
2023-03-16T04:04:44.301Z,69.54
2023-03-16T04:07:14.176Z,69.30
2023-03-16T04:09:44.722Z,69.30
2023-03-16T04:12:21.786Z,69.45
2023-03-16T04:14:51.077Z,69.43
2023-03-16T04:17:20.590Z,69.14
2023-03-16T04:19:49.807Z,69.26
2023-03-16T04:22:18.927Z,69.25
2023-03-16T04:24:48.573Z,69.17
2023-03-16T04:27:17.835Z,69.46
2023-03-16T04:29:47.845Z,69.36
2023-03-16T04:32:16.622Z,69.29
2023-03-16T04:34:47.868Z,69.07
2023-03-16T04:37:17.134Z,69.30
2023-03-16T04:39:46.516Z,69.22
2023-03-16T04:42:16.112Z,69.32
2023-03-16T04:44:45.771Z,69.39
2023-03-16T04:47:20.503Z,69.37
2023-03-16T04:49:51.166Z,69.43
2023-03-16T04:52:20.633Z,69.39
2023-03-16T04:54:51.617Z,69.46
2023-03-16T04:57:21.029Z,69.40
2023-03-16T04:59:53.797Z,69.60
2023-03-16T05:02:39.583Z,69.52
2023-03-16T05:05:10.350Z,69.56
2023-03-16T05:07:47.460Z,69.44
2023-03-16T05:10:18.775Z,69.02
2023-03-16T05:12:49.160Z,69.01
2023-03-16T05:15:18.161Z,69.09
2023-03-16T05:17:56.256Z,69.29
2023-03-16T06:48:17.157Z,72.93
2023-03-16T06:50:46.527Z,73.32
2023-03-16T06:53:15.832Z,72.50
2023-03-16T06:55:44.468Z,71.65
2023-03-16T06:58:14.044Z,70.27
2023-03-16T07:00:42.776Z,69.78
2023-03-16T07:03:12.307Z,69.05
2023-03-16T07:05:41.369Z,69.25
2023-03-16T07:08:11.493Z,69.55
2023-03-16T07:10:40.285Z,69.89
2023-03-16T07:13:08.948Z,70.17
2023-03-16T07:15:37.535Z,71.00
2023-03-16T07:18:08.001Z,71.78
2023-03-16T07:20:37.218Z,72.16
2023-03-16T07:23:07.700Z,72.13
2023-03-16T07:25:36.975Z,72.03
2023-03-16T07:28:07.312Z,71.86
2023-03-16T07:30:53.240Z,71.66
2023-03-16T07:33:31.591Z,71.56
2023-03-16T07:36:03.831Z,70.66
2023-03-16T07:38:35.464Z,70.64
2023-03-16T07:41:08.257Z,70.93
2023-03-16T07:43:37.047Z,70.20
2023-03-16T07:46:12.977Z,69.72
2023-03-16T07:48:42.476Z,70.10
2023-03-16T07:51:12.475Z,70.33
2023-03-16T07:53:41.549Z,69.61
2023-03-16T07:56:16.872Z,69.81
2023-03-16T07:58:47.617Z,69.66
2023-03-16T08:01:17.115Z,69.32
2023-03-16T08:03:46.084Z,68.97
2023-03-16T08:06:14.971Z,67.96
2023-03-16T08:08:43.914Z,67.81
2023-03-16T08:11:23.077Z,67.63
2023-03-16T08:13:57.349Z,66.74
2023-03-16T08:16:28.585Z,66.94
2023-03-16T08:18:57.839Z,67.87
2023-03-16T08:21:27.871Z,67.42
2023-03-16T08:23:57.985Z,66.56
2023-03-16T08:26:26.840Z,65.22
2023-03-16T08:29:02.610Z,65.00
2023-03-16T08:31:35.247Z,64.97
2023-03-16T08:34:26.208Z,64.82
2023-03-16T08:36:56.004Z,64.60
2023-03-16T08:39:25.516Z,64.66
2023-03-16T08:41:56.520Z,64.30
2023-03-16T08:44:30.841Z,64.24
2023-03-16T08:47:01.001Z,64.53
2023-03-16T08:49:30.929Z,64.85
2023-03-16T08:52:10.473Z,64.94
2023-03-16T08:54:47.134Z,65.20
2023-03-16T08:57:22.185Z,65.47
2023-03-16T08:59:51.080Z,65.56
2023-03-16T09:02:20.165Z,65.67
2023-03-16T09:04:49.978Z,65.72
2023-03-16T09:07:18.764Z,65.57
2023-03-16T09:09:51.035Z,66.00
2023-03-16T09:12:21.788Z,66.46
2023-03-16T09:14:50.583Z,66.92
2023-03-16T09:17:20.272Z,67.72
2023-03-16T09:19:51.635Z,68.08
2023-03-16T09:22:21.789Z,67.92
2023-03-16T09:24:54.215Z,67.45
2023-03-16T09:27:23.043Z,67.43
2023-03-16T09:29:55.282Z,67.58
2023-03-16T09:32:24.096Z,67.36
2023-03-16T09:34:55.853Z,66.41
2023-03-16T09:37:25.594Z,65.41
2023-03-16T09:39:58.012Z,65.79
2023-03-16T09:42:36.377Z,65.54
2023-03-16T09:45:18.322Z,65.16
2023-03-16T09:47:52.238Z,65.45
2023-03-16T09:50:35.213Z,65.29
2023-03-16T09:53:23.670Z,65.39
2023-03-16T09:55:53.733Z,65.02
2023-03-16T09:58:22.870Z,64.40
2023-03-16T10:01:00.564Z,64.21
2023-03-16T10:03:41.075Z,64.71
2023-03-16T10:06:13.704Z,65.19
2023-03-16T10:08:45.931Z,65.45
2023-03-16T10:11:25.576Z,65.34
2023-03-16T10:13:59.595Z,65.12
2023-03-16T10:16:38.173Z,65.56
2023-03-16T10:19:14.176Z,65.01
2023-03-16T10:21:43.264Z,65.13
2023-03-16T10:24:26.600Z,65.12
2023-03-16T10:26:59.599Z,65.18
2023-03-16T10:29:31.805Z,64.85
2023-03-16T10:32:11.588Z,65.13
2023-03-16T10:34:40.606Z,65.30
2023-03-16T10:37:14.130Z,64.63
2023-03-16T10:39:52.084Z,64.37
2023-03-16T10:42:21.795Z,64.55
2023-03-16T10:44:56.780Z,64.29
2023-03-16T10:47:30.639Z,63.31
2023-03-16T10:50:11.000Z,62.80
2023-03-16T10:52:43.514Z,62.08
2023-03-16T10:55:17.362Z,61.82
2023-03-16T10:57:54.521Z,61.64
2023-03-16T11:00:28.380Z,62.26
2023-03-16T11:02:59.144Z,62.30
2023-03-16T11:05:32.398Z,62.50
2023-03-16T11:08:09.513Z,62.56
2023-03-16T11:10:54.689Z,62.71
2023-03-16T11:13:34.440Z,63.07
2023-03-16T11:16:18.838Z,63.79
2023-03-16T11:18:52.926Z,63.79
2023-03-16T11:21:31.510Z,63.68
2023-03-16T11:24:03.302Z,63.45
2023-03-16T11:26:37.862Z,63.33
2023-03-16T11:29:20.225Z,63.21
2023-03-16T11:32:01.811Z,63.19
2023-03-16T11:34:32.529Z,63.18
2023-03-16T11:37:13.806Z,63.22
2023-03-16T11:39:56.976Z,63.38
2023-03-16T11:42:33.714Z,63.42
2023-03-16T11:45:17.722Z,63.66
2023-03-16T11:48:13.178Z,63.70
2023-03-16T11:50:53.766Z,63.51
2023-03-16T11:53:35.579Z,63.51
2023-03-16T11:56:15.871Z,63.55
2023-03-16T11:59:09.005Z,63.58
2023-03-16T12:02:00.716Z,63.40
2023-03-16T12:04:45.928Z,63.54
2023-03-16T12:07:26.605Z,63.54
2023-03-16T12:10:10.227Z,63.58
2023-03-16T12:12:51.000Z,63.52
2023-03-16T12:15:32.445Z,63.57
2023-03-16T12:18:09.409Z,63.41
2023-03-16T12:20:47.462Z,63.49
2023-03-16T12:23:22.876Z,63.39
2023-03-16T12:25:53.353Z,63.32
2023-03-16T12:28:27.136Z,63.39
2023-03-16T12:31:03.012Z,63.43
2023-03-16T12:33:56.362Z,63.48
2023-03-16T12:36:53.062Z,63.24
2023-03-16T12:39:48.457Z,63.28
2023-03-16T12:42:32.974Z,63.07
2023-03-16T12:45:05.865Z,63.11
2023-03-16T12:47:43.877Z,63.06
2023-03-16T12:50:16.757Z,63.12
2023-03-16T12:52:47.942Z,63.29
2023-03-16T12:55:18.830Z,63.24
2023-03-16T12:57:51.080Z,63.26
2023-03-16T13:00:34.124Z,63.31
2023-03-16T13:03:07.950Z,63.43
2023-03-16T13:05:38.147Z,63.36
2023-03-16T13:08:10.790Z,63.41
2023-03-16T13:10:40.565Z,63.27
2023-03-16T13:13:12.418Z,63.28
2023-03-16T13:15:44.638Z,63.14
2023-03-16T13:18:33.684Z,63.18
2023-03-16T13:21:13.101Z,63.12
2023-03-16T13:23:53.881Z,63.17
2023-03-16T13:26:36.876Z,63.31
2023-03-16T13:29:20.021Z,63.49
2023-03-16T13:31:56.539Z,63.51
2023-03-16T13:34:33.558Z,63.54
2023-03-16T13:37:06.274Z,63.50
2023-03-16T13:39:37.950Z,63.64
2023-03-16T13:42:17.329Z,63.58
2023-03-16T13:44:46.951Z,63.61
2023-03-16T13:47:19.929Z,63.50
2023-03-16T13:49:50.782Z,63.61
2023-03-16T13:52:27.130Z,63.52
2023-03-16T13:54:57.791Z,63.49
2023-03-16T13:57:29.782Z,63.28
2023-03-16T14:00:29.602Z,63.14
2023-03-16T14:03:03.773Z,63.10
2023-03-16T14:05:34.707Z,63.07
2023-03-16T14:08:16.920Z,62.92
2023-03-16T14:10:46.880Z,62.88
2023-03-16T14:13:32.481Z,62.85
2023-03-16T14:16:03.124Z,62.75
2023-03-16T14:19:01.629Z,62.88
2023-03-16T14:21:33.588Z,62.94
2023-03-16T14:24:06.703Z,63.01
2023-03-16T14:26:43.855Z,63.01
2023-03-16T14:29:19.733Z,63.03
2023-03-16T14:31:50.263Z,63.18
2023-03-16T14:34:28.789Z,63.25
2023-03-16T14:37:14.237Z,63.37
2023-03-16T14:39:47.225Z,63.29
2023-03-16T14:42:21.592Z,63.21
2023-03-16T14:44:50.877Z,63.13
2023-03-16T14:47:24.069Z,63.26
2023-03-16T14:49:53.245Z,63.16
2023-03-16T14:52:27.416Z,63.23
2023-03-16T14:54:56.248Z,63.10
2023-03-16T14:57:26.133Z,63.01
2023-03-16T14:59:55.512Z,63.06
2023-03-16T15:02:28.461Z,63.12
2023-03-16T15:05:01.429Z,62.98
2023-03-16T15:07:35.288Z,63.05
2023-03-16T15:10:16.564Z,62.99
2023-03-16T15:12:49.991Z,63.07
2023-03-16T15:15:22.428Z,63.11
2023-03-16T15:17:52.546Z,63.08
2023-03-16T15:20:24.949Z,63.07
2023-03-16T15:22:54.110Z,63.06
2023-03-16T15:25:35.764Z,63.11
2023-03-16T15:28:12.221Z,63.06
2023-03-16T15:30:41.454Z,63.06
2023-03-16T15:33:11.128Z,63.19
2023-03-16T15:35:43.519Z,63.16
2023-03-16T15:38:18.872Z,63.27
2023-03-16T15:40:50.484Z,63.18
2023-03-16T15:43:22.298Z,63.08
2023-03-16T15:45:51.756Z,63.09
2023-03-16T15:48:24.064Z,63.13
2023-03-16T15:50:57.149Z,63.04
2023-03-16T15:53:35.291Z,63.11
2023-03-16T15:56:11.039Z,63.17
2023-03-16T15:58:42.372Z,63.06
2023-03-16T16:01:25.483Z,62.87
2023-03-16T16:04:12.565Z,62.89
2023-03-16T16:06:41.930Z,62.74
2023-03-16T16:09:11.015Z,62.74
2023-03-16T16:11:41.059Z,62.75
2023-03-16T16:14:12.614Z,62.66
2023-03-16T16:16:45.200Z,62.73
2023-03-16T16:19:15.307Z,62.80
2023-03-16T16:21:45.892Z,62.77
2023-03-16T16:24:14.985Z,62.68
2023-03-16T16:26:50.988Z,62.70
2023-03-16T16:29:25.200Z,62.65
2023-03-16T16:31:55.663Z,62.73
2023-03-16T16:34:26.752Z,62.76
2023-03-16T16:37:09.257Z,62.76
2023-03-16T16:39:37.978Z,62.77
2023-03-16T16:42:16.888Z,62.79
2023-03-16T16:44:45.764Z,62.72
2023-03-16T16:47:21.811Z,62.81
2023-03-16T16:49:51.532Z,62.66
2023-03-16T16:52:23.323Z,62.73
2023-03-16T16:54:52.824Z,62.79
2023-03-16T16:57:21.795Z,62.86
2023-03-16T16:59:53.434Z,62.85
2023-03-16T17:02:33.448Z,62.93
2023-03-16T17:05:13.062Z,62.89
2023-03-16T17:07:43.280Z,62.94
2023-03-16T17:10:16.839Z,63.05
2023-03-16T17:12:47.313Z,62.99
2023-03-16T17:15:32.186Z,62.93
2023-03-16T17:18:13.581Z,63.00
2023-03-16T17:20:43.183Z,62.93
2023-03-16T17:23:28.872Z,62.75
2023-03-16T17:26:13.204Z,62.87
2023-03-16T17:28:47.062Z,62.73
2023-03-16T17:31:20.425Z,62.63
2023-03-16T17:33:49.895Z,62.61
2023-03-16T17:36:19.352Z,62.60
2023-03-16T17:38:49.551Z,62.67
2023-03-16T17:41:22.813Z,62.67
2023-03-16T17:43:54.910Z,62.63
2023-03-16T17:46:29.423Z,62.52
2023-03-16T17:49:01.312Z,62.51
2023-03-16T17:51:31.824Z,62.63
2023-03-16T17:54:00.971Z,62.57
2023-03-16T17:56:34.799Z,62.44
2023-03-16T17:59:07.750Z,62.46
2023-03-16T18:01:38.562Z,62.43
2023-03-16T18:04:17.095Z,62.40
2023-03-16T18:06:56.169Z,62.45
2023-03-16T18:09:25.429Z,62.74
2023-03-16T18:11:56.718Z,62.67
2023-03-16T18:14:35.321Z,62.63
2023-03-16T18:17:07.855Z,62.61
2023-03-16T18:19:37.181Z,62.58
2023-03-16T18:22:19.053Z,62.78
2023-03-16T18:24:54.836Z,62.91
2023-03-16T18:27:25.185Z,63.02
2023-03-16T18:29:53.771Z,63.02
2023-03-16T18:32:26.671Z,63.09
2023-03-16T18:34:56.914Z,63.14
2023-03-16T18:37:27.308Z,63.36
2023-03-16T18:39:56.341Z,63.39
2023-03-16T18:42:39.169Z,63.62
2023-03-16T18:45:16.417Z,63.52
2023-03-16T18:47:51.454Z,63.34
2023-03-16T18:50:31.051Z,63.06
2023-03-16T18:53:03.834Z,63.06
2023-03-16T18:55:44.343Z,63.10
2023-03-16T18:58:21.801Z,63.14
2023-03-16T19:00:58.662Z,63.16
2023-03-16T19:03:35.615Z,63.17
2023-03-16T19:06:11.347Z,63.27
2023-03-16T19:08:47.899Z,63.49
2023-03-16T19:11:21.443Z,63.36
2023-03-16T19:13:54.625Z,63.48
2023-03-16T19:16:33.894Z,63.53
2023-03-16T19:19:07.937Z,63.52
2023-03-16T19:21:50.735Z,63.69
2023-03-16T19:24:39.594Z,63.68
2023-03-16T19:27:24.892Z,63.97
2023-03-16T19:29:59.761Z,64.01
2023-03-16T19:32:35.750Z,63.80
2023-03-16T19:35:16.149Z,63.85
2023-03-16T19:37:47.065Z,63.81
2023-03-16T19:40:25.707Z,63.68
2023-03-16T19:43:13.667Z,63.97
2023-03-16T19:45:56.560Z,64.09
2023-03-16T19:48:43.619Z,64.05
2023-03-16T19:51:19.677Z,64.08
2023-03-16T19:54:00.812Z,64.19
2023-03-16T19:56:37.801Z,64.06
2023-03-16T19:59:10.856Z,64.05
2023-03-16T20:01:59.962Z,64.22
2023-03-16T20:04:46.852Z,64.12
2023-03-16T20:07:25.562Z,64.02
2023-03-16T20:09:56.035Z,64.17
2023-03-16T20:12:44.333Z,64.19
2023-03-16T20:15:18.032Z,64.06
2023-03-16T20:17:49.069Z,64.24
2023-03-16T20:20:25.714Z,64.27
2023-03-16T20:22:59.234Z,64.12
2023-03-16T20:25:36.343Z,64.40
2023-03-16T20:28:17.911Z,64.25
2023-03-16T20:30:49.146Z,64.22
2023-03-16T20:33:22.115Z,64.18
2023-03-16T20:35:53.528Z,64.34
2023-03-16T20:38:22.921Z,64.35
2023-03-16T20:40:54.296Z,64.42
2023-03-16T20:43:26.437Z,64.66
2023-03-16T20:45:57.623Z,64.65
2023-03-16T20:48:28.999Z,64.63
2023-03-16T20:50:59.428Z,64.59
2023-03-16T20:53:28.011Z,64.51
2023-03-16T20:55:57.336Z,64.51
2023-03-16T20:58:27.821Z,64.45
2023-03-16T21:00:57.725Z,64.55
2023-03-16T21:03:28.714Z,64.62
2023-03-16T21:05:59.837Z,64.59
2023-03-16T21:08:28.723Z,64.59
2023-03-16T21:10:59.354Z,64.74
2023-03-16T21:13:32.014Z,64.70
2023-03-16T21:16:07.382Z,64.53
2023-03-16T21:18:37.514Z,64.53
2023-03-16T21:21:15.117Z,64.72
2023-03-16T21:23:45.542Z,64.80
2023-03-16T21:26:18.173Z,64.76
2023-03-16T21:28:56.849Z,64.93
2023-03-16T21:31:27.478Z,64.90
2023-03-16T21:34:00.084Z,64.94
2023-03-16T21:36:30.172Z,64.95
2023-03-16T21:38:58.805Z,64.89
2023-03-16T21:41:30.127Z,64.82
2023-03-16T21:43:58.685Z,64.70
2023-03-16T21:46:31.626Z,64.76
2023-03-16T21:49:03.681Z,64.68
2023-03-16T21:51:35.606Z,64.50
2023-03-16T21:54:09.105Z,64.78
2023-03-16T21:56:38.406Z,65.00
2023-03-16T21:59:08.144Z,65.06
2023-03-16T22:01:50.583Z,65.09
2023-03-16T22:04:27.569Z,64.67
2023-03-16T22:06:56.646Z,64.34
2023-03-16T22:09:29.281Z,64.25
2023-03-16T22:11:58.127Z,64.46
2023-03-16T22:14:26.935Z,64.49
2023-03-16T22:16:58.359Z,64.59
2023-03-16T22:19:27.080Z,64.43
2023-03-16T22:21:56.798Z,64.54
2023-03-16T22:24:27.680Z,64.82
2023-03-16T22:26:59.627Z,65.01
2023-03-16T22:29:30.682Z,65.34
2023-03-16T22:32:03.655Z,65.34
2023-03-16T22:34:46.431Z,65.26
2023-03-16T22:37:20.804Z,65.12
2023-03-16T22:39:49.920Z,64.97
2023-03-16T22:42:27.553Z,64.82
2023-03-16T22:44:56.603Z,64.86
2023-03-16T22:47:27.703Z,64.70
2023-03-16T22:49:56.266Z,64.75
2023-03-16T22:52:29.974Z,64.93
2023-03-16T22:55:00.396Z,65.02
2023-03-16T22:57:30.516Z,64.90
2023-03-16T23:00:06.492Z,64.89
2023-03-16T23:02:35.523Z,64.80
2023-03-16T23:05:19.005Z,64.80
2023-03-16T23:07:48.720Z,64.78
2023-03-16T23:10:22.705Z,65.16
2023-03-16T23:12:52.907Z,65.56
2023-03-16T23:15:24.670Z,65.48
2023-03-16T23:17:53.867Z,65.64
2023-03-16T23:20:26.452Z,65.64
2023-03-16T23:22:55.230Z,65.50
2023-03-16T23:25:24.636Z,65.68
2023-03-16T23:28:03.560Z,65.81
2023-03-16T23:30:33.225Z,65.63
2023-03-16T23:33:02.273Z,65.56
2023-03-16T23:35:31.686Z,65.44
2023-03-16T23:38:00.462Z,65.40
2023-03-16T23:40:30.169Z,65.50
2023-03-16T23:43:01.936Z,65.47
2023-03-16T23:45:33.903Z,65.49
2023-03-16T23:48:06.102Z,65.42
2023-03-16T23:50:37.876Z,65.41
2023-03-16T23:53:12.288Z,65.45
2023-03-16T23:55:42.132Z,65.66
2023-03-16T23:58:12.623Z,65.99
